SVBS/MYC METAR and TAF weather

Enter ICAO airport designator
Station Type Date Time Source
SVBS METAR 2022/11/30 17:03 UTC NOAA

SVBS 301703Z AUTO 24005KT NCD 29/17 Q1013


Station Type Date Time Source
SVBS Decoded METAR 2022/11/30 17:03 UTC NOAA

Maracay-B. A. Sucre, Venezuela (SVBS) 10-15N 067-39W 437M
Nov 30, 2022 - 12:03 PM EST / 2022.11.30 1703 UTC
Wind: from the WSW (240 degrees) at 6 MPH (5 KT):0
Temperature: 84 F (29 C)
Dew Point: 62 F (17 C)
Relative Humidity: 48%
Pressure (altimeter): 29.91 in. Hg (1013 hPa)
ob: SVBS 301703Z AUTO 24005KT NCD 29/17 Q1013
cycle: 17

Station Type Date Time Source
SVBS TAF 2018/01/16 06:46 UTC NOAA

TAF SVBS 160400Z 1606/1706 00000KT 9999 FEW010 SCT070 TX33/18Z TN25/08Z
FM160800 00000KT 9999 FEW010

Example: see airport list